Terminal Aerodrome Forecast
Issued by NWS

Home | Current Version | Previous Version | Text Only | Print | Product List | Glossary On
Versions: 1 2 3 4 5 6 7 8 9 10 11 12 13 14 15 16 17 18 19 20 21 22 23 24 25 26 27 28 29 30 31 32
000
FTUS42 KILM 261200 CCA
TAFCRE
TAF COR
KCRE 261220Z 2612/2712 31012G18KT 6SM -RA BKN004
     FM261600 30011KT P6SM BKN020 BKN050
     FM270000 27004KT P6SM SCT050=

USA.gov is the U.S. government's official web portal to all federal, state and local government web resources and services.